createdAt,value
2019-05-19T00:00:23.478Z,100785.20
2019-05-19T00:02:53.211Z,100782.16
2019-05-19T00:05:22.620Z,100787.09
2019-05-19T00:07:52.102Z,100781.48
2019-05-19T00:10:21.620Z,100783.81
2019-05-19T00:12:51.234Z,100782.64
2019-05-19T00:15:20.740Z,100782.41
2019-05-19T00:17:50.184Z,100778.47
2019-05-19T00:20:19.700Z,100771.88
2019-05-19T00:22:49.829Z,100769.44
2019-05-19T00:25:19.277Z,100774.56
2019-05-19T00:27:48.811Z,100769.53
2019-05-19T00:30:18.583Z,100766.48
2019-05-19T00:32:48.030Z,100767.53
2019-05-19T00:35:17.899Z,100767.86
2019-05-19T00:37:47.514Z,100765.59
2019-05-19T00:40:17.035Z,100756.45
2019-05-19T00:42:46.506Z,100763.03
2019-05-19T00:45:16.233Z,100761.59
2019-05-19T00:47:45.683Z,100752.22
2019-05-19T00:50:15.504Z,100750.28
2019-05-19T00:52:45.039Z,100751.77
2019-05-19T00:55:14.731Z,100762.23
2019-05-19T00:57:44.931Z,100757.52
2019-05-19T01:00:15.295Z,100755.73
2019-05-19T01:02:44.809Z,100758.24
2019-05-19T01:05:14.847Z,100747.49
2019-05-19T01:07:44.350Z,100753.43
2019-05-19T01:10:14.087Z,100745.91
2019-05-19T01:12:43.535Z,100752.41
2019-05-19T01:15:13.620Z,100751.58
2019-05-19T01:17:43.058Z,100747.83
2019-05-19T01:20:13.112Z,100745.87
2019-05-19T01:22:42.621Z,100752.05
2019-05-19T01:25:12.489Z,100754.91
2019-05-19T01:27:42.052Z,100750.64
2019-05-19T01:30:12.623Z,100748.54
2019-05-19T01:32:42.079Z,100744.42
2019-05-19T01:35:11.693Z,100745.31
2019-05-19T01:37:41.151Z,100741.83
2019-05-19T01:40:11.314Z,100738.65
2019-05-19T01:42:40.773Z,100745.87
2019-05-19T01:45:10.757Z,100742.60
2019-05-19T01:47:40.206Z,100735.63
2019-05-19T01:50:18.604Z,100735.12
2019-05-19T01:52:41.955Z,100738.37
2019-05-19T01:55:12.401Z,100734.25
2019-05-19T01:57:41.867Z,100732.19
2019-05-19T02:00:12.227Z,100727.95
2019-05-19T02:02:41.669Z,100733.25
2019-05-19T02:05:11.344Z,100730.25
2019-05-19T02:07:40.884Z,100722.16
2019-05-19T02:10:10.530Z,100732.23
2019-05-19T02:12:39.974Z,100730.25
2019-05-19T02:15:10.072Z,100728.87
2019-05-19T02:17:39.523Z,100721.48
2019-05-19T02:20:10.385Z,100724.26
2019-05-19T02:22:39.994Z,100728.72
2019-05-19T02:25:09.881Z,100727.95
2019-05-19T02:27:39.394Z,100728.69
2019-05-19T02:30:10.865Z,100731.02
2019-05-19T02:32:40.965Z,100730.84
2019-05-19T02:35:12.387Z,100725.41
2019-05-19T02:37:42.017Z,100723.64
2019-05-19T02:40:12.924Z,100735.65
2019-05-19T02:42:45.109Z,100734.45
2019-05-19T02:45:14.985Z,100727.03
2019-05-19T02:47:45.983Z,100726.76
2019-05-19T02:50:15.639Z,100736.47
2019-05-19T02:52:47.908Z,100726.36
2019-05-19T02:55:18.885Z,100713.83
2019-05-19T02:57:50.947Z,100713.56
2019-05-19T03:00:23.499Z,100715.58
2019-05-19T03:02:54.564Z,100715.52
2019-05-19T03:05:23.979Z,100727.20
2019-05-19T03:07:53.408Z,100729.88
2019-05-19T03:10:22.816Z,100724.52
2019-05-19T03:12:52.404Z,100731.06
2019-05-19T03:15:21.825Z,100730.44
2019-05-19T03:17:52.018Z,100726.35
2019-05-19T03:20:21.495Z,100726.55
2019-05-19T03:22:50.954Z,100727.08
2019-05-19T03:25:20.360Z,100724.21
2019-05-19T03:27:49.805Z,100725.09
2019-05-19T03:30:27.872Z,100724.95
2019-05-19T03:33:01.764Z,100733.60
2019-05-19T03:35:31.144Z,100727.20
2019-05-19T03:38:00.589Z,100732.41
2019-05-19T03:40:30.000Z,100726.54
2019-05-19T03:42:59.449Z,100730.61
2019-05-19T03:45:28.870Z,100739.43
2019-05-19T03:47:58.342Z,100737.50
2019-05-19T03:50:27.761Z,100733.01
2019-05-19T03:52:57.211Z,100737.84
2019-05-19T03:55:26.630Z,100734.97
2019-05-19T03:57:56.625Z,100732.63
2019-05-19T04:00:26.113Z,100731.63
2019-05-19T04:02:55.570Z,100728.95
2019-05-19T04:05:25.003Z,100734.33
2019-05-19T04:07:55.942Z,100730.70
2019-05-19T04:10:25.440Z,100729.86
2019-05-19T04:12:54.905Z,100731.97
2019-05-19T04:15:24.332Z,100734.80
2019-05-19T04:17:53.809Z,100729.66
2019-05-19T04:20:23.205Z,100731.69
2019-05-19T04:22:52.663Z,100737.69
2019-05-19T04:25:22.117Z,100743.66
2019-05-19T04:27:51.576Z,100740.69
2019-05-19T04:30:21.376Z,100740.52
2019-05-19T04:32:50.845Z,100738.86
2019-05-19T04:35:20.448Z,100739.02
2019-05-19T04:37:50.114Z,100737.50
2019-05-19T04:40:19.567Z,100735.87
2019-05-19T04:42:49.840Z,100731.69
2019-05-19T04:45:19.289Z,100740.80
2019-05-19T04:47:48.842Z,100729.80
2019-05-19T04:50:18.788Z,100737.97
2019-05-19T04:52:48.239Z,100726.00
2019-05-19T04:55:17.729Z,100731.42
2019-05-19T04:57:47.308Z,100732.59
2019-05-19T05:00:17.740Z,100744.34
2019-05-19T05:02:47.200Z,100753.30
2019-05-19T05:05:17.098Z,100759.43
2019-05-19T05:07:46.546Z,100755.78
2019-05-19T05:10:16.321Z,100758.55
2019-05-19T05:12:45.781Z,100761.73
2019-05-19T05:15:15.403Z,100761.12
2019-05-19T05:17:44.997Z,100765.19
2019-05-19T05:20:16.173Z,100764.37
2019-05-19T05:22:48.617Z,100764.53
2019-05-19T05:25:19.121Z,100768.27
2019-05-19T05:27:48.625Z,100763.97
2019-05-19T05:30:18.895Z,100763.92
2019-05-19T05:32:48.641Z,100760.59
2019-05-19T05:35:21.153Z,100763.31
2019-05-19T05:37:50.599Z,100761.45
2019-05-19T05:40:20.274Z,100762.84
2019-05-19T05:42:49.748Z,100762.52
2019-05-19T05:45:19.259Z,100759.93
2019-05-19T05:47:48.892Z,100771.75
2019-05-19T05:50:18.596Z,100771.86
2019-05-19T05:52:48.039Z,100778.86
2019-05-19T05:55:17.638Z,100780.53
2019-05-19T05:57:47.143Z,100780.00
2019-05-19T06:00:17.099Z,100780.98
2019-05-19T06:02:46.705Z,100789.67
2019-05-19T06:05:16.215Z,100784.73
2019-05-19T06:07:45.651Z,100782.74
2019-05-19T06:10:16.964Z,100783.72
2019-05-19T06:12:46.567Z,100787.03
2019-05-19T06:15:17.991Z,100779.29
2019-05-19T06:17:48.102Z,100774.61
2019-05-19T06:20:19.196Z,100775.10
2019-05-19T06:22:56.263Z,100768.64
2019-05-19T06:25:20.162Z,100768.64
2019-05-19T06:27:49.615Z,100765.59
2019-05-19T06:30:20.909Z,100778.25
2019-05-19T06:32:55.835Z,100780.14
2019-05-19T06:35:25.590Z,100784.97
2019-05-19T06:37:55.009Z,100787.20
2019-05-19T06:40:24.588Z,100781.52
2019-05-19T06:42:54.096Z,100780.57
2019-05-19T06:45:23.752Z,100776.52
2019-05-19T06:47:54.744Z,100772.16
2019-05-19T06:50:24.198Z,100765.75
2019-05-19T06:52:53.707Z,100769.69
2019-05-19T06:55:23.214Z,100760.91
2019-05-19T06:57:52.646Z,100770.98
2019-05-19T07:00:23.965Z,100774.49
2019-05-19T07:02:53.428Z,100773.59
2019-05-19T07:05:22.882Z,100778.39
2019-05-19T07:07:52.809Z,100781.08
2019-05-19T07:10:22.258Z,100773.08
2019-05-19T07:12:51.719Z,100777.35
2019-05-19T07:15:21.257Z,100781.17
2019-05-19T07:17:51.023Z,100784.84
2019-05-19T07:20:20.459Z,100778.22
2019-05-19T07:22:50.473Z,100778.03
2019-05-19T07:25:20.119Z,100780.72
2019-05-19T07:27:50.723Z,100785.42
2019-05-19T07:30:20.570Z,100785.95
2019-05-19T07:32:50.016Z,100781.45
2019-05-19T07:35:19.459Z,100785.26
2019-05-19T07:37:48.951Z,100783.03
2019-05-19T07:40:18.552Z,100781.44
2019-05-19T07:42:48.120Z,100775.27
2019-05-19T07:45:20.355Z,100782.81
2019-05-19T07:47:49.898Z,100779.74
2019-05-19T07:50:19.335Z,100785.87
2019-05-19T07:52:48.911Z,100783.56
2019-05-19T07:55:18.358Z,100782.07
2019-05-19T07:57:47.763Z,100783.11
2019-05-19T08:00:17.465Z,100783.92
2019-05-19T08:02:46.899Z,100778.47
2019-05-19T08:05:17.914Z,100777.49
2019-05-19T08:07:47.623Z,100774.19
2019-05-19T08:10:17.319Z,100777.45
2019-05-19T08:12:46.734Z,100778.39
2019-05-19T08:15:17.028Z,100778.95
2019-05-19T08:17:46.491Z,100777.77
2019-05-19T08:20:16.488Z,100782.42
2019-05-19T08:22:46.192Z,100784.98
2019-05-19T08:25:15.809Z,100789.18
2019-05-19T08:27:45.331Z,100787.88
2019-05-19T08:30:16.809Z,100788.03
2019-05-19T08:32:46.495Z,100790.66
2019-05-19T08:35:15.976Z,100786.69
2019-05-19T08:37:45.424Z,100791.15
2019-05-19T08:40:15.519Z,100793.72
2019-05-19T08:42:45.081Z,100789.52
2019-05-19T08:45:14.921Z,100798.26
2019-05-19T08:47:44.432Z,100790.11
2019-05-19T08:50:14.316Z,100788.77
2019-05-19T08:52:43.771Z,100791.38
2019-05-19T08:55:13.408Z,100794.34
2019-05-19T08:57:43.073Z,100795.83
2019-05-19T09:00:14.021Z,100796.60
2019-05-19T09:02:43.458Z,100786.62
2019-05-19T09:05:13.448Z,100789.05
2019-05-19T09:07:42.922Z,100780.09
2019-05-19T09:10:14.434Z,100778.27
2019-05-19T09:12:43.895Z,100785.73
2019-05-19T09:15:13.469Z,100783.17
2019-05-19T09:17:43.121Z,100785.05
2019-05-19T09:20:13.078Z,100778.72
2019-05-19T09:22:42.545Z,100780.58
2019-05-19T09:25:12.053Z,100779.59
2019-05-19T09:27:41.506Z,100780.39
2019-05-19T09:30:11.465Z,100773.50
2019-05-19T09:32:40.991Z,100774.82
2019-05-19T09:35:11.910Z,100775.55
2019-05-19T09:37:41.356Z,100783.41
2019-05-19T09:40:11.943Z,100775.75
2019-05-19T09:42:42.899Z,100778.37
2019-05-19T09:45:12.755Z,100769.13
2019-05-19T09:47:43.858Z,100783.68
2019-05-19T09:50:14.730Z,100776.75
2019-05-19T09:52:44.359Z,100769.70
2019-05-19T09:55:15.115Z,100775.48
2019-05-19T09:57:44.547Z,100780.56
2019-05-19T10:00:14.237Z,100784.20
2019-05-19T10:02:43.681Z,100774.86
2019-05-19T10:05:13.866Z,100778.45
2019-05-19T10:07:43.449Z,100776.22
2019-05-19T10:10:18.842Z,100770.03
2019-05-19T10:12:50.913Z,100775.63
2019-05-19T10:15:20.644Z,100774.27
2019-05-19T10:17:50.122Z,100776.52
2019-05-19T10:20:19.870Z,100762.66
2019-05-19T10:22:49.304Z,100762.66
2019-05-19T10:25:22.373Z,100764.34
2019-05-19T10:27:50.024Z,100772.62
2019-05-19T10:30:20.980Z,100762.20
2019-05-19T10:32:50.445Z,100769.76
2019-05-19T10:35:19.851Z,100763.45
2019-05-19T10:37:50.262Z,100766.58
2019-05-19T10:40:19.913Z,100760.14
2019-05-19T10:42:50.221Z,100767.81
2019-05-19T10:45:19.696Z,100775.20
2019-05-19T10:47:49.130Z,100764.84
2019-05-19T10:50:18.720Z,100759.58
2019-05-19T10:52:48.230Z,100758.68
2019-05-19T10:55:17.855Z,100761.58
2019-05-19T10:57:48.849Z,100760.22
2019-05-19T11:00:18.742Z,100759.66
2019-05-19T11:02:48.206Z,100768.93
2019-05-19T11:05:17.685Z,100758.89
2019-05-19T11:07:48.728Z,100759.41
2019-05-19T11:10:18.277Z,100755.75
2019-05-19T11:12:47.732Z,100750.52
2019-05-19T11:15:17.470Z,100746.08
2019-05-19T11:17:46.925Z,100746.52
2019-05-19T11:20:16.526Z,100747.81
2019-05-19T11:22:46.115Z,100747.34
2019-05-19T11:25:15.716Z,100750.68
2019-05-19T11:27:45.172Z,100757.66
2019-05-19T11:30:15.060Z,100751.15
2019-05-19T11:32:44.710Z,100750.39
2019-05-19T11:35:17.502Z,100753.81
2019-05-19T11:37:47.091Z,100755.85
2019-05-19T11:40:17.934Z,100749.52
2019-05-19T11:42:47.427Z,100743.63
2019-05-19T11:45:17.071Z,100748.72
2019-05-19T11:47:46.653Z,100745.91
2019-05-19T11:50:16.301Z,100739.09
2019-05-19T11:52:45.732Z,100748.87
2019-05-19T11:55:15.408Z,100744.58
2019-05-19T11:57:45.219Z,100751.08
2019-05-19T12:00:15.196Z,100749.25
2019-05-19T12:02:44.654Z,100753.05
2019-05-19T12:05:14.415Z,100750.45
2019-05-19T12:07:43.852Z,100754.06
2019-05-19T12:10:13.437Z,100746.89
2019-05-19T12:12:42.951Z,100743.02
2019-05-19T12:15:12.993Z,100738.09
2019-05-19T12:17:42.452Z,100748.69
2019-05-19T12:20:12.080Z,100747.48
2019-05-19T12:22:41.535Z,100746.23
2019-05-19T12:25:11.422Z,100734.98
2019-05-19T12:27:41.132Z,100736.34
2019-05-19T12:30:13.637Z,100739.86
2019-05-19T12:32:43.103Z,100742.75
2019-05-19T12:35:12.876Z,100743.13
2019-05-19T12:37:42.385Z,100736.52
2019-05-19T12:40:13.032Z,100735.63
2019-05-19T12:42:42.462Z,100731.50
2019-05-19T12:45:14.491Z,100730.22
2019-05-19T12:47:44.003Z,100733.47
2019-05-19T12:50:14.353Z,100726.03
2019-05-19T12:52:43.811Z,100722.47
2019-05-19T12:55:13.797Z,100724.20
2019-05-19T12:57:43.331Z,100726.05
2019-05-19T13:00:14.287Z,100719.34
2019-05-19T13:02:43.746Z,100721.86
2019-05-19T13:05:13.844Z,100718.23
2019-05-19T13:07:43.327Z,100722.91
2019-05-19T13:10:12.983Z,100716.95
2019-05-19T13:12:42.450Z,100715.74
2019-05-19T13:15:15.389Z,100712.75
2019-05-19T13:17:43.350Z,100706.57
2019-05-19T13:20:13.368Z,100707.23
2019-05-19T13:22:42.811Z,100703.20
2019-05-19T13:25:12.795Z,100701.27
2019-05-19T13:27:42.254Z,100694.17
2019-05-19T13:30:12.125Z,100696.84
2019-05-19T13:32:41.583Z,100693.47
2019-05-19T13:35:11.151Z,100686.13
2019-05-19T13:37:42.153Z,100688.34
2019-05-19T13:40:12.000Z,100685.03
2019-05-19T13:42:41.457Z,100689.15
2019-05-19T13:45:11.810Z,100685.56
2019-05-19T13:47:42.779Z,100681.47
2019-05-19T13:50:12.725Z,100679.70
2019-05-19T13:52:42.348Z,100676.02
2019-05-19T13:55:11.955Z,100676.63
2019-05-19T13:57:41.444Z,100670.25
2019-05-19T14:00:11.564Z,100681.09
2019-05-19T14:02:42.716Z,100687.51
2019-05-19T14:05:12.507Z,100682.44
2019-05-19T14:07:41.963Z,100683.48
2019-05-19T14:10:12.011Z,100681.75
2019-05-19T14:12:42.081Z,100687.66
2019-05-19T14:15:11.659Z,100694.30
2019-05-19T14:17:41.085Z,100684.77
2019-05-19T14:20:11.051Z,100687.89
2019-05-19T14:22:40.560Z,100692.28
2019-05-19T14:25:10.538Z,100697.35
2019-05-19T14:27:39.999Z,100693.63
2019-05-19T14:30:09.907Z,100695.34
2019-05-19T14:32:39.361Z,100697.17
2019-05-19T14:35:09.639Z,100695.73
2019-05-19T14:37:39.194Z,100699.67
2019-05-19T14:40:09.193Z,100696.23
2019-05-19T14:42:43.458Z,100697.20
2019-05-19T14:45:14.644Z,100698.63
2019-05-19T14:47:44.116Z,100693.91
2019-05-19T14:50:13.985Z,100695.25
2019-05-19T14:52:43.428Z,100696.56
2019-05-19T14:55:13.899Z,100691.25
2019-05-19T14:57:45.280Z,100681.45
2019-05-19T15:00:15.362Z,100691.30
2019-05-19T15:02:45.032Z,100694.45
2019-05-19T15:05:15.703Z,100695.72
2019-05-19T15:07:45.329Z,100695.69
2019-05-19T15:10:17.104Z,100686.45
2019-05-19T15:12:46.675Z,100677.94
2019-05-19T15:15:16.517Z,100679.39
2019-05-19T15:17:46.160Z,100671.39
2019-05-19T15:20:16.365Z,100680.26
2019-05-19T15:22:45.840Z,100676.29
2019-05-19T15:25:15.660Z,100676.51
2019-05-19T15:27:59.366Z,100679.66
2019-05-19T15:30:17.928Z,100678.80
2019-05-19T15:32:47.382Z,100683.38
2019-05-19T15:35:17.096Z,100672.91
2019-05-19T15:37:46.524Z,100674.59
2019-05-19T15:40:16.219Z,100676.81
2019-05-19T15:42:46.465Z,100678.22
2019-05-19T15:45:16.325Z,100681.91
2019-05-19T15:47:45.772Z,100676.88
2019-05-19T15:50:16.569Z,100677.09
2019-05-19T15:52:46.132Z,100675.89
2019-05-19T15:55:15.662Z,100684.63
2019-05-19T15:57:45.070Z,100691.24
2019-05-19T16:00:17.511Z,100698.90
2019-05-19T16:02:46.927Z,100702.92
2019-05-19T16:05:16.644Z,100703.75
2019-05-19T16:07:46.059Z,100706.93
2019-05-19T16:10:17.317Z,100688.16
2019-05-19T16:12:46.765Z,100688.16
2019-05-19T16:15:16.661Z,100687.30
2019-05-19T16:17:46.102Z,100689.06
2019-05-19T16:20:16.269Z,100692.56
2019-05-19T16:22:45.885Z,100680.72
2019-05-19T16:25:15.469Z,100695.60
2019-05-19T16:27:44.972Z,100695.60
2019-05-19T16:30:14.624Z,100698.25
2019-05-19T16:32:44.084Z,100694.30
2019-05-19T16:35:15.636Z,100696.07
2019-05-19T16:37:45.106Z,100694.73
2019-05-19T16:40:16.378Z,100688.07
2019-05-19T16:42:45.822Z,100688.07
2019-05-19T16:45:15.522Z,100684.05
2019-05-19T16:47:45.004Z,100684.05
2019-05-19T16:50:14.501Z,100678.77
2019-05-19T16:52:43.955Z,100670.46
2019-05-19T16:55:21.046Z,100669.99
2019-05-19T16:57:50.516Z,100668.26
2019-05-19T17:00:20.308Z,100662.59
2019-05-19T17:02:49.829Z,100655.56
2019-05-19T17:05:19.414Z,100652.94
2019-05-19T17:07:48.934Z,100659.91
2019-05-19T17:10:18.542Z,100659.91
2019-05-19T17:12:47.988Z,100658.19
2019-05-19T17:15:19.254Z,100664.75
2019-05-19T17:17:48.768Z,100672.14
2019-05-19T17:20:18.744Z,100669.53
2019-05-19T17:22:48.292Z,100678.27
2019-05-19T17:25:17.778Z,100682.59
2019-05-19T17:27:47.229Z,100679.11
2019-05-19T17:30:17.675Z,100671.72
2019-05-19T17:32:47.105Z,100672.61
2019-05-19T17:35:16.913Z,100674.41
2019-05-19T17:37:46.420Z,100682.33
2019-05-19T17:40:17.118Z,100683.67
2019-05-19T17:42:46.629Z,100679.73
2019-05-19T17:45:16.562Z,100677.53
2019-05-19T17:47:46.080Z,100678.42
2019-05-19T17:50:17.698Z,100681.94
2019-05-19T17:52:47.155Z,100690.66
2019-05-19T17:55:17.871Z,100691.55
2019-05-19T17:57:47.663Z,100691.55
2019-05-19T18:00:20.190Z,100686.27
2019-05-19T18:02:49.622Z,100681.43
2019-05-19T18:05:19.111Z,100670.89
2019-05-19T18:07:48.554Z,100670.89
2019-05-19T18:10:18.078Z,100676.55
2019-05-19T18:12:47.516Z,100666.85
2019-05-19T18:15:17.555Z,100655.45
2019-05-19T18:17:46.999Z,100660.69
2019-05-19T18:20:23.748Z,100657.55
2019-05-19T18:22:47.766Z,100657.56
2019-05-19T18:25:17.255Z,100653.24
2019-05-19T18:27:46.751Z,100652.83
2019-05-19T18:30:17.179Z,100651.05
2019-05-19T18:32:46.627Z,100652.35
2019-05-19T18:35:16.107Z,100653.67
2019-05-19T18:37:45.551Z,100666.73
2019-05-19T18:40:15.227Z,100670.23
2019-05-19T18:42:44.667Z,100669.78
2019-05-19T18:45:14.205Z,100678.58
2019-05-19T18:47:44.208Z,100679.42
2019-05-19T18:50:14.148Z,100685.98
2019-05-19T18:52:43.863Z,100690.84
2019-05-19T18:55:13.425Z,100694.78
2019-05-19T18:57:42.920Z,100699.10
2019-05-19T19:00:12.663Z,100689.97
2019-05-19T19:02:42.210Z,100687.36
2019-05-19T19:05:11.748Z,100688.66
2019-05-19T19:07:48.490Z,100689.08
2019-05-19T19:10:17.897Z,100692.07
2019-05-19T19:12:47.910Z,100701.64
2019-05-19T19:15:17.451Z,100706.80
2019-05-19T19:17:47.038Z,100733.84
2019-05-19T19:20:16.544Z,100713.80
2019-05-19T19:22:45.989Z,100709.00
2019-05-19T19:25:15.497Z,100707.23
2019-05-19T19:27:45.013Z,100719.22
2019-05-19T19:30:15.437Z,100711.77
2019-05-19T19:32:45.348Z,100707.80
2019-05-19T19:35:14.870Z,100714.72
2019-05-19T19:37:44.321Z,100704.69
2019-05-19T19:40:14.197Z,100719.57
2019-05-19T19:42:44.369Z,100717.74
2019-05-19T19:45:14.494Z,100716.76
2019-05-19T19:47:45.474Z,100719.78
2019-05-19T19:50:16.490Z,100723.64
2019-05-19T19:52:45.998Z,100726.13
2019-05-19T19:55:15.426Z,100725.70
2019-05-19T19:57:44.845Z,100722.07
2019-05-19T20:00:18.252Z,100725.59
2019-05-19T20:02:45.824Z,100731.99
2019-05-19T20:05:16.824Z,100727.11
2019-05-19T20:07:46.365Z,100735.08
2019-05-19T20:10:17.357Z,100734.64
2019-05-19T20:12:46.772Z,100735.05
2019-05-19T20:15:16.284Z,100736.31
2019-05-19T20:17:45.690Z,100733.20
2019-05-19T20:20:15.174Z,100738.41
2019-05-19T20:22:44.604Z,100731.27
2019-05-19T20:25:14.112Z,100732.41
2019-05-19T20:27:43.546Z,100730.66
2019-05-19T20:30:13.212Z,100733.63
2019-05-19T20:32:42.613Z,100729.94
2019-05-19T20:35:14.093Z,100731.19
2019-05-19T20:37:43.643Z,100736.23
2019-05-19T20:40:14.621Z,100729.13
2019-05-19T20:42:44.019Z,100733.40
2019-05-19T20:45:13.788Z,100736.13
2019-05-19T20:47:43.187Z,100735.46
2019-05-19T20:50:13.278Z,100733.06
2019-05-19T20:52:42.661Z,100727.80
2019-05-19T20:55:12.888Z,100725.14
2019-05-19T20:57:42.313Z,100724.66
2019-05-19T21:00:13.382Z,100724.22
2019-05-19T21:02:42.877Z,100721.14
2019-05-19T21:05:12.461Z,100729.34
2019-05-19T21:07:41.884Z,100734.06
2019-05-19T21:10:11.943Z,100735.86
2019-05-19T21:12:41.437Z,100746.80
2019-05-19T21:15:11.432Z,100756.97
2019-05-19T21:17:40.945Z,100802.41
2019-05-19T21:20:11.020Z,100827.81
2019-05-19T21:22:40.497Z,100793.31
2019-05-19T21:25:10.699Z,100820.92
2019-05-19T21:27:40.373Z,100817.20
2019-05-19T21:30:10.454Z,100810.21
2019-05-19T21:32:39.961Z,100807.20
2019-05-19T21:35:09.634Z,100819.80
2019-05-19T21:37:39.159Z,100812.83
2019-05-19T21:40:09.040Z,100814.11
2019-05-19T21:42:38.499Z,100809.28
2019-05-19T21:45:08.146Z,100801.75
2019-05-19T21:47:37.557Z,100809.14
2019-05-19T21:50:08.686Z,100804.27
2019-05-19T21:52:38.129Z,100797.36
2019-05-19T21:55:08.122Z,100793.37
2019-05-19T21:57:37.528Z,100790.27
2019-05-19T22:00:12.533Z,100788.05
2019-05-19T22:02:42.078Z,100785.89
2019-05-19T22:05:12.027Z,100783.59
2019-05-19T22:07:43.128Z,100782.67
2019-05-19T22:10:12.833Z,100780.51
2019-05-19T22:12:42.428Z,100783.41
2019-05-19T22:15:12.240Z,100782.44
2019-05-19T22:17:41.832Z,100783.99
2019-05-19T22:20:13.178Z,100783.45
2019-05-19T22:22:42.614Z,100775.03
2019-05-19T22:25:12.528Z,100770.09
2019-05-19T22:27:42.139Z,100766.72
2019-05-19T22:30:11.860Z,100766.94
2019-05-19T22:32:41.295Z,100753.69
2019-05-19T22:35:13.283Z,100741.38
2019-05-19T22:37:42.720Z,100728.21
2019-05-19T22:40:12.386Z,100721.45
2019-05-19T22:42:41.835Z,100730.98
2019-05-19T22:45:11.980Z,100731.00
2019-05-19T22:47:41.426Z,100721.84
2019-05-19T22:50:11.491Z,100720.33
2019-05-19T22:52:42.593Z,100722.41
2019-05-19T22:55:12.872Z,100717.95
2019-05-19T22:57:42.317Z,100713.62
2019-05-19T23:00:13.038Z,100712.81
2019-05-19T23:02:42.604Z,100703.61
2019-05-19T23:05:12.755Z,100702.24
2019-05-19T23:07:42.182Z,100699.62
2019-05-19T23:10:12.131Z,100692.27
2019-05-19T23:12:41.592Z,100688.78
2019-05-19T23:15:11.249Z,100678.31
2019-05-19T23:17:40.820Z,100678.70
2019-05-19T23:20:10.402Z,100685.63
2019-05-19T23:22:41.654Z,100671.17
2019-05-19T23:25:11.409Z,100662.29
2019-05-19T23:27:40.869Z,100671.34
2019-05-19T23:30:10.985Z,100672.23
2019-05-19T23:32:41.932Z,100664.67
2019-05-19T23:35:11.686Z,100652.44
2019-05-19T23:37:41.130Z,100651.48
2019-05-19T23:40:12.556Z,100642.70
2019-05-19T23:42:42.231Z,100650.53
2019-05-19T23:45:12.729Z,100659.23
2019-05-19T23:47:42.159Z,100659.31
2019-05-19T23:50:11.845Z,100654.30
2019-05-19T23:52:41.361Z,100666.25
2019-05-19T23:55:12.924Z,100666.91
2019-05-19T23:57:42.345Z,100681.21
